createdAt,value
2018-04-13T00:00:34.176Z,0
2018-04-13T00:01:34.486Z,0
2018-04-13T00:02:34.507Z,0
2018-04-13T00:03:34.289Z,0
2018-04-13T00:04:34.340Z,0
2018-04-13T00:05:34.643Z,0
2018-04-13T00:06:34.679Z,0
2018-04-13T00:07:34.447Z,0
2018-04-13T00:08:34.762Z,0
2018-04-13T00:09:34.520Z,0
2018-04-13T00:10:34.561Z,0
2018-04-13T00:11:34.607Z,0
2018-04-13T00:12:34.643Z,0
2018-04-13T00:13:34.675Z,0
2018-04-13T00:14:34.712Z,0
2018-04-13T00:15:34.749Z,0
2018-04-13T00:16:34.804Z,0
2018-04-13T00:17:34.831Z,0
2018-04-13T00:18:35.393Z,0
2018-04-13T00:19:35.166Z,0
2018-04-13T00:20:34.943Z,0
2018-04-13T00:21:34.987Z,0
2018-04-13T00:22:35.028Z,0
2018-04-13T00:23:35.060Z,0
2018-04-13T00:24:35.099Z,0
2018-04-13T00:25:35.656Z,0
2018-04-13T00:26:35.171Z,0
2018-04-13T00:27:35.220Z,0
2018-04-13T00:28:35.515Z,0
2018-04-13T00:29:35.295Z,0
2018-04-13T00:30:35.594Z,0
2018-04-13T00:31:35.638Z,0
2018-04-13T00:32:35.663Z,0
2018-04-13T00:33:35.460Z,0
2018-04-13T00:34:35.478Z,0
2018-04-13T00:35:35.523Z,0
2018-04-13T00:36:35.814Z,0
2018-04-13T00:37:35.603Z,0
2018-04-13T00:38:35.631Z,0
2018-04-13T00:39:35.679Z,0
2018-04-13T00:40:35.717Z,0
2018-04-13T00:41:36.276Z,0
2018-04-13T00:42:35.801Z,0
2018-04-13T00:43:36.090Z,0
2018-04-13T00:44:35.876Z,0
2018-04-13T00:45:35.902Z,0
2018-04-13T00:46:35.940Z,0
2018-04-13T00:47:35.982Z,0
2018-04-13T00:48:36.020Z,0
2018-04-13T00:49:36.324Z,0
2018-04-13T00:50:36.091Z,0
2018-04-13T00:51:36.136Z,0
2018-04-13T00:52:36.169Z,0
2018-04-13T00:53:36.233Z,0
2018-04-13T00:54:36.247Z,0
2018-04-13T00:55:36.290Z,0
2018-04-13T00:56:36.321Z,0
2018-04-13T00:57:36.619Z,0
2018-04-13T00:58:36.405Z,0
2018-04-13T00:59:36.708Z,0
2018-04-13T01:00:36.474Z,0
2018-04-13T01:01:36.519Z,0
2018-04-13T01:02:36.550Z,0
2018-04-13T01:03:36.849Z,0
2018-04-13T01:04:36.639Z,0
2018-04-13T01:05:36.672Z,0
2018-04-13T01:06:36.708Z,0
2018-04-13T01:07:36.739Z,0
2018-04-13T01:08:37.926Z,0
2018-04-13T01:09:36.822Z,0
2018-04-13T01:10:37.129Z,0
2018-04-13T01:11:36.908Z,0
2018-04-13T01:12:36.938Z,0
2018-04-13T01:13:37.492Z,0
2018-04-13T01:14:37.015Z,0
2018-04-13T01:15:37.586Z,0
2018-04-13T01:16:37.084Z,0
2018-04-13T01:17:37.128Z,0
2018-04-13T01:18:37.172Z,0
2018-04-13T01:19:37.469Z,0
2018-04-13T01:20:37.514Z,0
2018-04-13T01:21:37.546Z,0
2018-04-13T01:22:37.314Z,0
2018-04-13T01:23:37.497Z,0
2018-04-13T01:24:37.389Z,0
2018-04-13T01:25:37.700Z,0
2018-04-13T01:26:37.470Z,0
2018-04-13T01:27:37.510Z,0
2018-04-13T01:28:37.783Z,0
2018-04-13T01:29:37.581Z,0
2018-04-13T01:30:37.881Z,0
2018-04-13T01:31:37.919Z,0
2018-04-13T01:32:37.699Z,0
2018-04-13T01:33:37.753Z,0
2018-04-13T01:34:37.767Z,0
2018-04-13T01:35:38.081Z,0
2018-04-13T01:36:37.845Z,0
2018-04-13T01:37:37.894Z,0
2018-04-13T01:38:37.925Z,0
2018-04-13T01:39:37.969Z,0
2018-04-13T01:40:38.258Z,0
2018-04-13T01:41:38.307Z,0
2018-04-13T01:42:38.086Z,0
2018-04-13T01:43:38.124Z,0
2018-04-13T01:44:38.164Z,0
2018-04-13T01:45:38.187Z,0
2018-04-13T01:46:38.229Z,0
2018-04-13T01:47:38.270Z,0
2018-04-13T01:48:38.304Z,0
2018-04-13T01:49:38.340Z,0
2018-04-13T01:50:38.397Z,0
2018-04-13T01:51:38.686Z,0
2018-04-13T01:52:38.731Z,0
2018-04-13T01:53:38.764Z,0
2018-04-13T01:54:38.535Z,0
2018-04-13T01:55:38.579Z,0
2018-04-13T01:56:38.879Z,0
2018-04-13T01:57:38.640Z,0
2018-04-13T01:58:38.680Z,0
2018-04-13T01:59:38.726Z,0
2018-04-13T02:00:39.288Z,0
2018-04-13T02:01:39.076Z,0
2018-04-13T02:02:38.850Z,0
2018-04-13T02:03:39.395Z,0
2018-04-13T02:04:38.929Z,0
2018-04-13T02:05:38.949Z,0
2018-04-13T02:06:39.261Z,0
2018-04-13T02:07:39.024Z,0
2018-04-13T02:08:39.068Z,0
2018-04-13T02:09:39.117Z,0
2018-04-13T02:10:39.143Z,0
2018-04-13T02:11:39.176Z,0
2018-04-13T02:12:39.225Z,0
2018-04-13T02:13:39.513Z,0
2018-04-13T02:14:39.552Z,0
2018-04-13T02:15:39.338Z,0
2018-04-13T02:16:39.377Z,0
2018-04-13T02:17:39.404Z,0
2018-04-13T02:18:39.451Z,0
2018-04-13T02:19:39.480Z,0
2018-04-13T02:20:39.526Z,0
2018-04-13T02:21:39.561Z,0
2018-04-13T02:22:39.873Z,0
2018-04-13T02:23:39.643Z,0
2018-04-13T02:24:39.940Z,0
2018-04-13T02:25:39.711Z,0
2018-04-13T02:26:39.744Z,0
2018-04-13T02:27:40.397Z,0
2018-04-13T02:28:40.094Z,0
2018-04-13T02:29:39.866Z,0
2018-04-13T02:30:40.160Z,0
2018-04-13T02:31:40.190Z,0
2018-04-13T02:32:40.523Z,0
2018-04-13T02:33:40.782Z,0
2018-04-13T02:34:41.074Z,0
2018-04-13T02:35:40.095Z,0
2018-04-13T02:36:40.126Z,0
2018-04-13T02:37:40.693Z,0
2018-04-13T02:38:40.716Z,0
2018-04-13T02:39:41.023Z,0
2018-04-13T02:40:41.057Z,0
2018-04-13T02:41:40.578Z,0
2018-04-13T02:42:40.632Z,0
2018-04-13T02:43:40.914Z,0
2018-04-13T02:44:40.695Z,0
2018-04-13T02:45:40.472Z,0
2018-04-13T02:46:40.509Z,0
2018-04-13T02:47:41.080Z,0
2018-04-13T02:48:41.105Z,0
2018-04-13T02:49:40.881Z,0
2018-04-13T02:50:41.301Z,0
2018-04-13T02:51:40.962Z,0
2018-04-13T02:52:41.259Z,0
2018-04-13T02:53:40.777Z,0
2018-04-13T02:54:41.072Z,0
2018-04-13T02:55:40.851Z,0
2018-04-13T02:56:40.878Z,0
2018-04-13T02:57:40.927Z,0
2018-04-13T02:58:42.014Z,0
2018-04-13T02:59:41.000Z,0
2018-04-13T03:00:41.032Z,0
2018-04-13T03:01:41.335Z,0
2018-04-13T03:02:41.365Z,0
2018-04-13T03:03:41.660Z,0
2018-04-13T03:04:41.175Z,0
2018-04-13T03:05:41.222Z,0
2018-04-13T03:06:41.260Z,0
2018-04-13T03:07:41.567Z,0
2018-04-13T03:08:41.328Z,0
2018-04-13T03:09:41.641Z,0
2018-04-13T03:10:41.937Z,0
2018-04-13T03:11:41.696Z,0
2018-04-13T03:12:41.483Z,0
2018-04-13T03:13:41.783Z,0
2018-04-13T03:14:41.551Z,0
2018-04-13T03:15:41.593Z,0
2018-04-13T03:16:41.890Z,0
2018-04-13T03:17:41.679Z,0
2018-04-13T03:18:42.243Z,0
2018-04-13T03:19:41.745Z,0
2018-04-13T03:20:41.784Z,0
2018-04-13T03:21:41.825Z,0
2018-04-13T03:22:42.112Z,0
2018-04-13T03:23:41.898Z,0
2018-04-13T03:24:41.927Z,0
2018-04-13T03:25:42.234Z,0
2018-04-13T03:26:42.002Z,0
2018-04-13T03:27:42.050Z,0
2018-04-13T03:28:42.350Z,0
2018-04-13T03:29:42.395Z,0
2018-04-13T03:30:42.939Z,0
2018-04-13T03:31:42.734Z,0
2018-04-13T03:32:42.506Z,0
2018-04-13T03:33:42.272Z,0
2018-04-13T03:34:42.308Z,0
2018-04-13T03:35:42.344Z,0
2018-04-13T03:36:42.391Z,0
2018-04-13T03:37:42.424Z,0
2018-04-13T03:38:42.458Z,0
2018-04-13T03:39:42.755Z,0
2018-04-13T03:40:42.800Z,0
2018-04-13T03:41:42.561Z,0
2018-04-13T03:42:42.832Z,0
2018-04-13T03:43:42.656Z,0
2018-04-13T03:44:42.678Z,0
2018-04-13T03:45:42.727Z,0
2018-04-13T03:46:42.753Z,0
2018-04-13T03:47:42.798Z,0
2018-04-13T03:48:43.093Z,0
2018-04-13T03:49:42.878Z,0
2018-04-13T03:50:42.919Z,0
2018-04-13T03:51:42.944Z,0
2018-04-13T03:52:42.984Z,0
2018-04-13T03:53:43.018Z,0
2018-04-13T03:54:43.328Z,0
2018-04-13T03:55:43.098Z,0
2018-04-13T03:56:43.140Z,0
2018-04-13T03:57:43.168Z,0
2018-04-13T03:58:43.465Z,0
2018-04-13T03:59:43.250Z,0
2018-04-13T04:00:43.293Z,0
2018-04-13T04:01:43.317Z,0
2018-04-13T04:02:43.358Z,0
2018-04-13T04:03:43.392Z,0
2018-04-13T04:04:43.431Z,0
2018-04-13T04:05:44.002Z,0
2018-04-13T04:06:43.512Z,0
2018-04-13T04:07:43.543Z,0
2018-04-13T04:08:43.665Z,0
2018-04-13T04:09:43.618Z,0
2018-04-13T04:10:43.658Z,0
2018-04-13T04:11:43.707Z,0
2018-04-13T04:12:43.731Z,0
2018-04-13T04:13:43.779Z,0
2018-04-13T04:14:44.332Z,0
2018-04-13T04:15:43.844Z,0
2018-04-13T04:16:43.893Z,0
2018-04-13T04:17:43.932Z,0
2018-04-13T04:18:43.958Z,0
2018-04-13T04:19:44.011Z,0
2018-04-13T04:20:44.043Z,0
2018-04-13T04:21:44.084Z,0
2018-04-13T04:22:44.375Z,0
2018-04-13T04:23:44.165Z,0
2018-04-13T04:24:44.196Z,0
2018-04-13T04:25:44.693Z,0
2018-04-13T04:26:44.257Z,0
2018-04-13T04:27:44.313Z,5
2018-04-13T04:28:44.544Z,5
2018-04-13T04:29:44.383Z,5
2018-04-13T04:30:44.416Z,5
2018-04-13T04:31:44.448Z,5
2018-04-13T04:32:44.494Z,5
2018-04-13T04:33:44.524Z,5
2018-04-13T04:34:44.844Z,5
2018-04-13T04:35:44.599Z,5
2018-04-13T04:36:44.637Z,5
2018-04-13T04:37:44.686Z,5
2018-04-13T04:38:44.724Z,5
2018-04-13T04:39:45.032Z,10
2018-04-13T04:40:44.788Z,10
2018-04-13T04:41:45.090Z,10
2018-04-13T04:42:44.869Z,10
2018-04-13T04:43:45.436Z,10
2018-04-13T04:44:45.203Z,10
2018-04-13T04:45:45.250Z,10
2018-04-13T04:46:45.015Z,10
2018-04-13T04:47:45.051Z,10
2018-04-13T04:48:45.615Z,10
2018-04-13T04:49:45.127Z,10
2018-04-13T04:50:45.163Z,10
2018-04-13T04:51:45.206Z,10
2018-04-13T04:52:45.273Z,15
2018-04-13T04:53:45.541Z,15
2018-04-13T04:54:45.323Z,15
2018-04-13T04:55:45.613Z,15
2018-04-13T04:56:45.435Z,15
2018-04-13T04:57:45.427Z,15
2018-04-13T04:58:45.732Z,15
2018-04-13T04:59:46.110Z,15
2018-04-13T05:00:45.540Z,15
2018-04-13T05:01:45.588Z,20
2018-04-13T05:02:45.616Z,20
2018-04-13T05:03:45.654Z,20
2018-04-13T05:04:45.702Z,20
2018-04-13T05:05:45.731Z,20
2018-04-13T05:06:45.770Z,20
2018-04-13T05:07:45.805Z,20
2018-04-13T05:08:45.846Z,20
2018-04-13T05:09:46.061Z,25
2018-04-13T05:10:45.923Z,25
2018-04-13T05:11:45.957Z,25
2018-04-13T05:12:46.031Z,25
2018-04-13T05:13:46.294Z,25
2018-04-13T05:14:46.071Z,25
2018-04-13T05:15:46.109Z,25
2018-04-13T05:16:46.399Z,30
2018-04-13T05:17:46.708Z,30
2018-04-13T05:18:46.230Z,30
2018-04-13T05:19:46.555Z,30
2018-04-13T05:20:46.303Z,35
2018-04-13T05:21:46.468Z,35
2018-04-13T05:22:46.372Z,35
2018-04-13T05:23:46.413Z,35
2018-04-13T05:24:46.720Z,30
2018-04-13T05:25:46.745Z,30
2018-04-13T05:26:46.780Z,35
2018-04-13T05:27:46.830Z,35
2018-04-13T05:28:46.604Z,35
2018-04-13T05:29:46.647Z,35
2018-04-13T05:30:46.684Z,35
2018-04-13T05:31:46.977Z,35
2018-04-13T05:32:47.288Z,35
2018-04-13T05:33:47.057Z,35
2018-04-13T05:34:47.083Z,35
2018-04-13T05:35:47.119Z,30
2018-04-13T05:36:46.900Z,30
2018-04-13T05:37:46.939Z,30
2018-04-13T05:38:46.980Z,30
2018-04-13T05:39:47.030Z,30
2018-04-13T05:40:47.053Z,30
2018-04-13T05:41:47.155Z,30
2018-04-13T05:42:47.182Z,30
2018-04-13T05:43:47.163Z,30
2018-04-13T05:44:47.461Z,25
2018-04-13T05:45:47.499Z,30
2018-04-13T05:46:47.280Z,30
2018-04-13T05:47:47.330Z,30
2018-04-13T05:48:48.537Z,35
2018-04-13T05:49:47.923Z,35
2018-04-13T05:50:47.470Z,40
2018-04-13T05:51:47.468Z,40
2018-04-13T05:52:47.807Z,40
2018-04-13T05:53:47.881Z,40
2018-04-13T05:54:47.611Z,40
2018-04-13T05:55:47.623Z,40
2018-04-13T05:56:47.663Z,45
2018-04-13T05:57:47.695Z,50
2018-04-13T05:58:47.745Z,55
2018-04-13T05:59:47.789Z,60
2018-04-13T06:00:48.067Z,65
2018-04-13T06:01:47.860Z,65
2018-04-13T06:02:47.900Z,60
2018-04-13T06:03:48.175Z,60
2018-04-13T06:04:47.968Z,65
2018-04-13T06:05:48.007Z,65
2018-04-13T06:06:48.037Z,65
2018-04-13T06:07:48.084Z,60
2018-04-13T06:08:48.118Z,60
2018-04-13T06:09:48.432Z,65
2018-04-13T06:10:48.199Z,70
2018-04-13T06:11:48.235Z,75
2018-04-13T06:12:48.377Z,65
2018-04-13T06:13:48.314Z,60
2018-04-13T06:14:48.609Z,55
2018-04-13T06:15:48.382Z,60
2018-04-13T06:16:48.449Z,60
2018-04-13T06:17:48.723Z,55
2018-04-13T06:18:48.516Z,55
2018-04-13T06:19:49.136Z,55
2018-04-13T06:20:48.584Z,60
2018-04-13T06:21:48.715Z,60
2018-04-13T06:22:48.693Z,55
2018-04-13T06:23:49.053Z,50
2018-04-13T06:24:48.735Z,50
2018-04-13T06:25:49.154Z,50
2018-04-13T06:26:48.836Z,50
2018-04-13T06:27:49.129Z,55
2018-04-13T06:28:48.892Z,55
2018-04-13T06:29:49.270Z,55
2018-04-13T06:30:49.059Z,55
2018-04-13T06:31:48.999Z,55
2018-04-13T06:32:49.038Z,55
2018-04-13T06:33:49.133Z,50
2018-04-13T06:34:49.218Z,45
2018-04-13T06:35:49.448Z,45
2018-04-13T06:36:49.199Z,45
2018-04-13T06:37:49.246Z,40
2018-04-13T06:38:49.269Z,40
2018-04-13T06:39:49.302Z,40
2018-04-13T06:40:49.356Z,40
2018-04-13T06:41:50.682Z,40
2018-04-13T06:42:49.416Z,40
2018-04-13T06:43:51.673Z,40
2018-04-13T06:44:49.500Z,40
2018-04-13T06:45:49.527Z,40
2018-04-13T06:46:49.820Z,40
2018-04-13T06:47:49.608Z,45
2018-04-13T06:48:49.764Z,45
2018-04-13T06:49:49.759Z,45
2018-04-13T06:50:49.724Z,45
2018-04-13T06:51:49.754Z,45
2018-04-13T06:52:49.789Z,45
2018-04-13T06:53:52.699Z,50
2018-04-13T06:54:49.875Z,50
2018-04-13T06:55:49.908Z,50
2018-04-13T06:56:50.280Z,55
2018-04-13T06:57:50.495Z,55
2018-04-13T06:58:50.302Z,55
2018-04-13T06:59:50.059Z,55
2018-04-13T07:00:50.616Z,60
2018-04-13T07:01:50.142Z,65
2018-04-13T07:02:50.175Z,70
2018-04-13T07:03:50.477Z,75
2018-04-13T07:04:50.814Z,90
2018-04-13T07:05:50.291Z,95
2018-04-13T07:06:50.333Z,95
2018-04-13T07:07:50.363Z,95
2018-04-13T07:08:50.689Z,105
2018-04-13T07:09:50.499Z,105
2018-04-13T07:10:50.794Z,95
2018-04-13T07:11:50.539Z,90
2018-04-13T07:12:50.576Z,95
2018-04-13T07:13:50.637Z,100
2018-04-13T07:14:50.652Z,95
2018-04-13T07:15:50.674Z,85
2018-04-13T07:16:50.705Z,75
2018-04-13T07:17:51.064Z,70
2018-04-13T07:18:50.794Z,75
2018-04-13T07:19:50.829Z,75
2018-04-13T07:20:51.141Z,70
2018-04-13T07:21:51.163Z,60
2018-04-13T07:22:50.958Z,55
2018-04-13T07:23:50.979Z,55
2018-04-13T07:24:51.596Z,55
2018-04-13T07:25:51.065Z,60
2018-04-13T07:26:51.376Z,55
2018-04-13T07:27:51.138Z,65
2018-04-13T07:28:51.185Z,75
2018-04-13T07:29:51.514Z,90
2018-04-13T07:30:51.243Z,105
2018-04-13T07:31:51.290Z,105
2018-04-13T07:32:51.589Z,105
2018-04-13T07:33:51.624Z,115
2018-04-13T07:34:51.397Z,130
2018-04-13T07:35:51.439Z,105
2018-04-13T07:36:52.230Z,95
2018-04-13T07:37:51.521Z,80
2018-04-13T07:38:51.550Z,65
2018-04-13T07:39:52.326Z,55
2018-04-13T07:40:51.624Z,55
2018-04-13T07:41:52.149Z,55
2018-04-13T07:42:51.711Z,65
2018-04-13T07:43:51.749Z,90
2018-04-13T07:44:52.781Z,110
2018-04-13T07:45:52.410Z,125
2018-04-13T07:46:51.950Z,115
2018-04-13T07:47:52.472Z,105
2018-04-13T07:48:53.003Z,120
2018-04-13T07:49:51.985Z,115
2018-04-13T07:50:52.278Z,115
2018-04-13T07:51:52.316Z,130
2018-04-13T07:52:52.356Z,105
2018-04-13T07:53:52.133Z,100
2018-04-13T07:54:52.432Z,95
2018-04-13T07:55:52.200Z,80
2018-04-13T07:56:52.925Z,75
2018-04-13T07:57:52.277Z,75
2018-04-13T07:58:52.695Z,80
2018-04-13T07:59:52.645Z,85
2018-04-13T08:00:52.985Z,85
2018-04-13T08:01:53.632Z,120
2018-04-13T08:02:52.521Z,155
2018-04-13T08:03:52.512Z,190
2018-04-13T08:04:52.557Z,240
2018-04-13T08:05:52.855Z,220
2018-04-13T08:06:52.642Z,270
2018-04-13T08:07:52.664Z,270
2018-04-13T08:08:52.706Z,255
2018-04-13T08:09:52.764Z,275
2018-04-13T08:10:53.331Z,345
2018-04-13T08:11:52.828Z,380
2018-04-13T08:12:52.861Z,395
2018-04-13T08:13:52.896Z,395
2018-04-13T08:14:52.940Z,400
2018-04-13T08:15:54.066Z,465
2018-04-13T08:16:53.013Z,465
2018-04-13T08:17:53.057Z,455
2018-04-13T08:18:53.102Z,380
2018-04-13T08:19:53.146Z,330
2018-04-13T08:20:53.478Z,305
2018-04-13T08:21:53.210Z,310
2018-04-13T08:22:53.555Z,315
2018-04-13T08:23:53.298Z,310
2018-04-13T08:24:53.343Z,250
2018-04-13T08:25:53.447Z,205
2018-04-13T08:26:53.423Z,175
2018-04-13T08:27:53.531Z,175
2018-04-13T08:28:53.494Z,175
2018-04-13T08:29:54.887Z,165
2018-04-13T08:30:53.575Z,160
2018-04-13T08:31:53.615Z,160
2018-04-13T08:32:53.951Z,145
2018-04-13T08:33:53.700Z,155
2018-04-13T08:34:54.020Z,180
2018-04-13T08:35:54.050Z,215
2018-04-13T08:36:54.413Z,235
2018-04-13T08:37:54.141Z,255
2018-04-13T08:38:54.169Z,275
2018-04-13T08:39:54.281Z,245
2018-04-13T08:40:53.987Z,210
2018-04-13T08:41:54.014Z,240
2018-04-13T08:42:54.047Z,265
2018-04-13T08:43:54.095Z,235
2018-04-13T08:44:54.392Z,190
2018-04-13T08:45:54.461Z,165
2018-04-13T08:46:54.216Z,175
2018-04-13T08:47:54.252Z,200
2018-04-13T08:48:54.893Z,195
2018-04-13T08:49:54.645Z,225
2018-04-13T08:50:54.367Z,235
2018-04-13T08:51:54.462Z,290
2018-04-13T08:52:54.776Z,375
2018-04-13T08:53:54.507Z,445
2018-04-13T08:54:55.567Z,770
2018-04-13T08:55:54.627Z,880
2018-04-13T08:56:54.878Z,485
2018-04-13T08:57:54.975Z,415
2018-04-13T08:58:54.951Z,395
2018-04-13T08:59:54.722Z,375
2018-04-13T09:00:55.061Z,435
2018-04-13T09:01:54.806Z,555
2018-04-13T09:02:54.850Z,1015
2018-04-13T09:03:54.890Z,855
2018-04-13T09:04:54.930Z,1845
2018-04-13T09:05:55.226Z,1325
2018-04-13T09:06:55.012Z,880
2018-04-13T09:07:55.325Z,680
2018-04-13T09:08:55.095Z,1225
2018-04-13T09:09:55.139Z,420
2018-04-13T09:10:55.177Z,360
2018-04-13T09:11:55.232Z,265
2018-04-13T09:12:55.270Z,180
2018-04-13T09:13:55.307Z,135
2018-04-13T09:14:55.343Z,135
2018-04-13T09:15:55.396Z,160
2018-04-13T09:16:55.698Z,185
2018-04-13T09:17:55.477Z,210
2018-04-13T09:18:55.778Z,180
2018-04-13T09:19:55.552Z,180
2018-04-13T09:20:55.666Z,180
2018-04-13T09:21:55.905Z,165
2018-04-13T09:22:55.682Z,175
2018-04-13T09:23:55.724Z,215
2018-04-13T09:24:55.763Z,190
2018-04-13T09:25:55.800Z,180
2018-04-13T09:26:55.843Z,165
2018-04-13T09:27:55.897Z,150
2018-04-13T09:28:55.922Z,140
2018-04-13T09:29:55.969Z,145
2018-04-13T09:30:56.017Z,155
2018-04-13T09:31:56.048Z,140
2018-04-13T09:32:56.087Z,125
2018-04-13T09:33:56.138Z,130
2018-04-13T09:34:56.171Z,150
2018-04-13T09:35:56.198Z,170
2018-04-13T09:36:56.258Z,175
2018-04-13T09:37:56.291Z,155
2018-04-13T09:38:56.580Z,145
2018-04-13T09:39:56.364Z,130
2018-04-13T09:40:56.426Z,125
2018-04-13T09:41:56.440Z,165
2018-04-13T09:42:56.490Z,245
2018-04-13T09:43:56.788Z,290
2018-04-13T09:44:56.563Z,315
2018-04-13T09:45:56.608Z,320
2018-04-13T09:46:56.650Z,320
2018-04-13T09:47:56.943Z,320
2018-04-13T09:48:56.720Z,295
2018-04-13T09:49:56.765Z,290
2018-04-13T09:50:56.806Z,320
2018-04-13T09:51:56.846Z,375
2018-04-13T09:52:57.176Z,675
2018-04-13T09:53:56.928Z,1255
2018-04-13T09:54:57.231Z,1240
2018-04-13T09:55:57.277Z,660
2018-04-13T09:56:57.057Z,435
2018-04-13T09:57:57.137Z,490
2018-04-13T09:58:57.404Z,810
2018-04-13T09:59:57.174Z,620
2018-04-13T10:00:57.216Z,415
2018-04-13T10:01:57.291Z,390
2018-04-13T10:02:57.297Z,980
2018-04-13T10:03:57.446Z,1010
2018-04-13T10:04:57.389Z,855
2018-04-13T10:05:57.679Z,1270
2018-04-13T10:06:57.468Z,995
2018-04-13T10:07:57.505Z,1805
2018-04-13T10:08:57.554Z,1750
2018-04-13T10:09:57.853Z,1685
2018-04-13T10:10:57.640Z,1625
2018-04-13T10:11:57.680Z,1675
2018-04-13T10:12:57.720Z,1130
2018-04-13T10:13:57.777Z,785
2018-04-13T10:14:57.821Z,930
2018-04-13T10:15:57.855Z,1505
2018-04-13T10:16:58.183Z,650
2018-04-13T10:17:58.218Z,1175
2018-04-13T10:18:58.005Z,390
2018-04-13T10:19:58.305Z,305
2018-04-13T10:20:58.945Z,275
2018-04-13T10:21:58.402Z,240
2018-04-13T10:22:58.182Z,235
2018-04-13T10:23:58.233Z,215
2018-04-13T10:24:58.274Z,230
2018-04-13T10:25:58.322Z,260
2018-04-13T10:26:59.009Z,580
2018-04-13T10:27:58.414Z,380
2018-04-13T10:28:58.709Z,705
2018-04-13T10:29:58.576Z,1230
2018-04-13T10:30:58.686Z,925
2018-04-13T10:31:58.581Z,620
2018-04-13T10:32:58.632Z,490
2018-04-13T10:33:58.683Z,455
2018-04-13T10:34:58.986Z,460
2018-04-13T10:35:59.275Z,490
2018-04-13T10:36:58.807Z,370
2018-04-13T10:37:58.853Z,350
2018-04-13T10:38:59.153Z,345
2018-04-13T10:39:59.463Z,355
2018-04-13T10:40:58.976Z,340
2018-04-13T10:41:59.018Z,285
2018-04-13T10:42:59.330Z,215
2018-04-13T10:43:59.100Z,190
2018-04-13T10:44:59.152Z,190
2018-04-13T10:45:59.196Z,205
2018-04-13T10:46:59.230Z,220
2018-04-13T10:47:59.277Z,245
2018-04-13T10:48:59.314Z,290
2018-04-13T10:49:59.361Z,335
2018-04-13T10:50:59.402Z,235
2018-04-13T10:51:59.440Z,210
2018-04-13T10:52:59.493Z,215
2018-04-13T10:53:59.524Z,250
2018-04-13T10:54:59.910Z,220
2018-04-13T10:55:59.609Z,190
2018-04-13T10:56:59.661Z,185
2018-04-13T10:58:00.210Z,185
2018-04-13T10:59:00.005Z,195
2018-04-13T10:59:59.769Z,215
2018-04-13T11:00:59.804Z,240
2018-04-13T11:01:59.855Z,255
2018-04-13T11:03:00.154Z,280
2018-04-13T11:03:59.927Z,345
2018-04-13T11:04:59.973Z,290
2018-04-13T11:06:00.281Z,235
2018-04-13T11:07:00.052Z,175
2018-04-13T11:08:00.355Z,130
2018-04-13T11:09:00.130Z,125
2018-04-13T11:10:00.172Z,145
2018-04-13T11:11:00.476Z,155
2018-04-13T11:12:00.266Z,160
2018-04-13T11:13:00.304Z,165
2018-04-13T11:14:00.327Z,175
2018-04-13T11:15:00.376Z,190
2018-04-13T11:16:00.423Z,205
2018-04-13T11:17:01.129Z,215
2018-04-13T11:18:00.494Z,220
2018-04-13T11:19:00.529Z,240
2018-04-13T11:20:00.850Z,260
2018-04-13T11:21:01.284Z,260
2018-04-13T11:22:00.681Z,285
2018-04-13T11:23:00.702Z,305
2018-04-13T11:24:00.761Z,295
2018-04-13T11:25:01.086Z,300
2018-04-13T11:26:01.080Z,270
2018-04-13T11:27:00.858Z,250
2018-04-13T11:28:00.896Z,245
2018-04-13T11:29:00.937Z,255
2018-04-13T11:30:00.979Z,265
2018-04-13T11:31:01.067Z,265
2018-04-13T11:32:01.329Z,265
2018-04-13T11:33:01.100Z,270
2018-04-13T11:34:01.401Z,285
2018-04-13T11:35:01.204Z,290
2018-04-13T11:36:01.490Z,280
2018-04-13T11:37:01.257Z,300
2018-04-13T11:38:01.327Z,330
2018-04-13T11:39:01.347Z,355
2018-04-13T11:40:01.384Z,365
2018-04-13T11:41:01.436Z,355
2018-04-13T11:42:01.459Z,365
2018-04-13T11:43:01.493Z,365
2018-04-13T11:44:01.544Z,370
2018-04-13T11:45:01.583Z,370
2018-04-13T11:46:01.623Z,375
2018-04-13T11:47:01.931Z,410
2018-04-13T11:48:01.704Z,415
2018-04-13T11:49:01.749Z,410
2018-04-13T11:50:01.788Z,415
2018-04-13T11:51:02.357Z,390
2018-04-13T11:52:01.871Z,345
2018-04-13T11:53:02.175Z,330
2018-04-13T11:54:01.981Z,315
2018-04-13T11:55:01.991Z,305
2018-04-13T11:56:02.037Z,310
2018-04-13T11:57:02.073Z,315
2018-04-13T11:58:02.376Z,330
2018-04-13T11:59:02.157Z,325
2018-04-13T12:00:02.197Z,320
2018-04-13T12:01:02.234Z,320
2018-04-13T12:02:02.293Z,340
2018-04-13T12:03:02.336Z,360
2018-04-13T12:04:02.354Z,370
2018-04-13T12:05:02.398Z,380
2018-04-13T12:06:02.712Z,385
2018-04-13T12:07:03.197Z,390
2018-04-13T12:08:02.787Z,380
2018-04-13T12:09:02.625Z,365
2018-04-13T12:10:02.867Z,335
2018-04-13T12:11:02.717Z,340
2018-04-13T12:12:02.722Z,320
2018-04-13T12:13:02.740Z,340
2018-04-13T12:14:02.795Z,335
2018-04-13T12:15:02.827Z,350
2018-04-13T12:16:02.867Z,320
2018-04-13T12:17:02.943Z,295
2018-04-13T12:18:03.201Z,300
2018-04-13T12:19:03.328Z,315
2018-04-13T12:20:03.024Z,270
2018-04-13T12:21:03.584Z,250
2018-04-13T12:22:03.111Z,255
2018-04-13T12:23:03.166Z,265
2018-04-13T12:24:03.430Z,250
2018-04-13T12:25:03.492Z,205
2018-04-13T12:26:03.272Z,175
2018-04-13T12:27:03.579Z,180
2018-04-13T12:28:03.620Z,185
2018-04-13T12:29:03.409Z,170
2018-04-13T12:30:03.519Z,140
2018-04-13T12:31:03.488Z,130
2018-04-13T12:32:03.527Z,105
2018-04-13T12:33:03.829Z,100
2018-04-13T12:34:03.872Z,110
2018-04-13T12:35:03.650Z,120
2018-04-13T12:36:04.466Z,120
2018-04-13T12:37:11.964Z,160
2018-04-13T12:38:08.689Z,200
2018-04-13T12:39:04.066Z,205
2018-04-13T12:40:08.587Z,215
2018-04-13T12:41:13.105Z,215
2018-04-13T12:42:03.927Z,205
2018-04-13T12:43:03.964Z,195
2018-04-13T12:44:04.264Z,190
2018-04-13T12:45:04.581Z,195
2018-04-13T12:46:04.091Z,190
2018-04-13T12:47:04.385Z,180
2018-04-13T12:48:04.682Z,185
2018-04-13T12:49:04.541Z,175
2018-04-13T12:50:04.777Z,175
2018-04-13T12:51:04.595Z,175
2018-04-13T12:52:04.327Z,170
2018-04-13T12:53:04.689Z,160
2018-04-13T12:54:05.255Z,155
2018-04-13T12:55:05.527Z,145
2018-04-13T12:56:04.513Z,140
2018-04-13T12:57:04.573Z,140
2018-04-13T12:58:04.565Z,140
2018-04-13T12:59:04.863Z,140
2018-04-13T13:00:04.904Z,145
2018-04-13T13:01:04.685Z,145
2018-04-13T13:02:04.721Z,145
2018-04-13T13:03:05.020Z,145
2018-04-13T13:04:04.795Z,160
2018-04-13T13:05:04.850Z,175
2018-04-13T13:06:04.863Z,190
2018-04-13T13:07:04.909Z,200
2018-04-13T13:08:05.465Z,205
2018-04-13T13:09:04.994Z,210
2018-04-13T13:10:05.023Z,210
2018-04-13T13:11:05.314Z,210
2018-04-13T13:12:05.094Z,230
2018-04-13T13:13:05.404Z,255
2018-04-13T13:14:05.187Z,270
2018-04-13T13:15:05.216Z,275
2018-04-13T13:16:05.564Z,280
2018-04-13T13:17:05.293Z,285
2018-04-13T13:18:05.325Z,275
2018-04-13T13:19:05.369Z,260
2018-04-13T13:20:05.405Z,245
2018-04-13T13:21:05.440Z,230
2018-04-13T13:22:05.482Z,220
2018-04-13T13:23:05.789Z,215
2018-04-13T13:24:06.090Z,220
2018-04-13T13:25:05.865Z,225
2018-04-13T13:26:05.899Z,235
2018-04-13T13:27:05.678Z,240
2018-04-13T13:28:05.713Z,245
2018-04-13T13:29:06.026Z,240
2018-04-13T13:30:05.797Z,245
2018-04-13T13:31:06.090Z,255
2018-04-13T13:32:06.131Z,260
2018-04-13T13:33:05.911Z,265
2018-04-13T13:34:05.954Z,275
2018-04-13T13:35:06.301Z,285
2018-04-13T13:36:06.030Z,270
2018-04-13T13:37:06.069Z,270
2018-04-13T13:38:06.106Z,275
2018-04-13T13:39:06.409Z,260
2018-04-13T13:40:06.184Z,235
2018-04-13T13:41:06.221Z,200
2018-04-13T13:42:06.263Z,195
2018-04-13T13:43:06.308Z,200
2018-04-13T13:44:06.341Z,200
2018-04-13T13:45:06.706Z,195
2018-04-13T13:46:06.417Z,185
2018-04-13T13:47:06.458Z,185
2018-04-13T13:48:06.491Z,180
2018-04-13T13:49:07.063Z,185
2018-04-13T13:50:06.834Z,175
2018-04-13T13:51:06.609Z,175
2018-04-13T13:52:06.653Z,170
2018-04-13T13:53:06.959Z,165
2018-04-13T13:54:06.735Z,165
2018-04-13T13:55:07.042Z,170
2018-04-13T13:56:06.800Z,175
2018-04-13T13:57:06.852Z,180
2018-04-13T13:58:06.887Z,190
2018-04-13T13:59:07.245Z,205
2018-04-13T14:00:07.227Z,200
2018-04-13T14:01:07.001Z,185
2018-04-13T14:02:07.044Z,165
2018-04-13T14:03:07.088Z,140
2018-04-13T14:04:07.421Z,125
2018-04-13T14:05:07.157Z,125
2018-04-13T14:06:07.201Z,120
2018-04-13T14:07:07.498Z,120
2018-04-13T14:08:07.277Z,130
2018-04-13T14:09:07.837Z,130
2018-04-13T14:10:07.353Z,145
2018-04-13T14:11:07.660Z,155
2018-04-13T14:12:07.430Z,160